sensor_id;sensor_type;location;lat;lon;timestamp;temperature;humidity
78461;SHT31;67755;51.986;5.696;2023-12-04T00:02:18;5.4;65.8
78461;SHT31;67755;51.986;5.696;2023-12-04T00:04:47;5.4;65.9
78461;SHT31;67755;51.986;5.696;2023-12-04T00:07:17;5.4;66.1
78461;SHT31;67755;51.986;5.696;2023-12-04T00:09:46;5.4;66.2
78461;SHT31;67755;51.986;5.696;2023-12-04T00:12:14;5.4;65.9
78461;SHT31;67755;51.986;5.696;2023-12-04T00:14:43;5.4;66.1
78461;SHT31;67755;51.986;5.696;2023-12-04T00:17:12;5.4;66.1
78461;SHT31;67755;51.986;5.696;2023-12-04T00:19:40;5.4;66.0
78461;SHT31;67755;51.986;5.696;2023-12-04T00:22:09;5.4;65.9
78461;SHT31;67755;51.986;5.696;2023-12-04T00:24:37;5.4;65.9
78461;SHT31;67755;51.986;5.696;2023-12-04T00:27:06;5.4;65.9
78461;SHT31;67755;51.986;5.696;2023-12-04T00:29:34;5.4;66.0
78461;SHT31;67755;51.986;5.696;2023-12-04T00:32:03;5.4;65.7
78461;SHT31;67755;51.986;5.696;2023-12-04T00:34:33;5.4;65.6
78461;SHT31;67755;51.986;5.696;2023-12-04T00:37:01;5.4;65.4
78461;SHT31;67755;51.986;5.696;2023-12-04T00:39:30;5.3;65.7
78461;SHT31;67755;51.986;5.696;2023-12-04T00:41:58;5.3;65.7
78461;SHT31;67755;51.986;5.696;2023-12-04T00:44:27;5.3;65.9
78461;SHT31;67755;51.986;5.696;2023-12-04T00:46:56;5.3;65.8
78461;SHT31;67755;51.986;5.696;2023-12-04T00:49:24;5.3;66.1
78461;SHT31;67755;51.986;5.696;2023-12-04T00:51:53;5.3;65.9
78461;SHT31;67755;51.986;5.696;2023-12-04T00:54:21;5.3;66.0
78461;SHT31;67755;51.986;5.696;2023-12-04T00:56:50;5.4;65.9
78461;SHT31;67755;51.986;5.696;2023-12-04T00:59:18;5.4;65.9
78461;SHT31;67755;51.986;5.696;2023-12-04T01:01:47;5.4;65.9
78461;SHT31;67755;51.986;5.696;2023-12-04T01:04:16;5.4;65.5
78461;SHT31;67755;51.986;5.696;2023-12-04T01:06:44;5.4;65.5
78461;SHT31;67755;51.986;5.696;2023-12-04T01:09:13;5.4;65.8
78461;SHT31;67755;51.986;5.696;2023-12-04T01:11:42;5.4;65.8
78461;SHT31;67755;51.986;5.696;2023-12-04T01:14:12;5.4;65.4
78461;SHT31;67755;51.986;5.696;2023-12-04T01:16:41;5.4;65.4
78461;SHT31;67755;51.986;5.696;2023-12-04T01:19:10;5.4;65.5
78461;SHT31;67755;51.986;5.696;2023-12-04T01:21:39;5.3;65.5
78461;SHT31;67755;51.986;5.696;2023-12-04T01:24:07;5.3;65.8
78461;SHT31;67755;51.986;5.696;2023-12-04T01:26:36;5.3;65.8
78461;SHT31;67755;51.986;5.696;2023-12-04T01:29:05;5.3;65.9
78461;SHT31;67755;51.986;5.696;2023-12-04T01:31:34;5.3;65.6
78461;SHT31;67755;51.986;5.696;2023-12-04T01:34:02;5.3;65.9
78461;SHT31;67755;51.986;5.696;2023-12-04T01:36:31;5.3;66.3
78461;SHT31;67755;51.986;5.696;2023-12-04T01:38:59;5.3;65.7
78461;SHT31;67755;51.986;5.696;2023-12-04T01:41:30;5.3;65.6
78461;SHT31;67755;51.986;5.696;2023-12-04T01:43:58;5.3;66.1
78461;SHT31;67755;51.986;5.696;2023-12-04T01:46:29;5.3;65.9
78461;SHT31;67755;51.986;5.696;2023-12-04T01:48:58;5.3;66.0
78461;SHT31;67755;51.986;5.696;2023-12-04T01:51:30;5.3;66.2
78461;SHT31;67755;51.986;5.696;2023-12-04T01:54:00;5.3;65.9
78461;SHT31;67755;51.986;5.696;2023-12-04T01:56:32;5.3;65.4
78461;SHT31;67755;51.986;5.696;2023-12-04T01:59:04;5.3;65.8
78461;SHT31;67755;51.986;5.696;2023-12-04T02:01:35;5.3;65.7
78461;SHT31;67755;51.986;5.696;2023-12-04T02:04:06;5.3;65.6
78461;SHT31;67755;51.986;5.696;2023-12-04T02:06:34;5.3;65.6
78461;SHT31;67755;51.986;5.696;2023-12-04T02:09:03;5.3;65.7
78461;SHT31;67755;51.986;5.696;2023-12-04T02:11:33;5.3;65.9
78461;SHT31;67755;51.986;5.696;2023-12-04T02:14:02;5.3;65.8
78461;SHT31;67755;51.986;5.696;2023-12-04T02:16:32;5.3;65.6
78461;SHT31;67755;51.986;5.696;2023-12-04T02:19:04;5.3;65.7
78461;SHT31;67755;51.986;5.696;2023-12-04T02:21:33;5.3;65.6
78461;SHT31;67755;51.986;5.696;2023-12-04T02:24:02;5.3;65.6
78461;SHT31;67755;51.986;5.696;2023-12-04T02:26:36;5.3;65.6
78461;SHT31;67755;51.986;5.696;2023-12-04T02:29:10;5.3;65.1
78461;SHT31;67755;51.986;5.696;2023-12-04T02:31:41;5.3;65.2
78461;SHT31;67755;51.986;5.696;2023-12-04T02:34:12;5.3;65.4
78461;SHT31;67755;51.986;5.696;2023-12-04T02:36:43;5.3;65.3
78461;SHT31;67755;51.986;5.696;2023-12-04T02:39:12;5.3;65.3
78461;SHT31;67755;51.986;5.696;2023-12-04T02:41:43;5.3;65.3
78461;SHT31;67755;51.986;5.696;2023-12-04T02:44:12;5.3;65.1
78461;SHT31;67755;51.986;5.696;2023-12-04T02:46:40;5.3;65.6
78461;SHT31;67755;51.986;5.696;2023-12-04T02:49:09;5.3;65.7
78461;SHT31;67755;51.986;5.696;2023-12-04T02:51:40;5.4;65.8
78461;SHT31;67755;51.986;5.696;2023-12-04T02:54:09;5.4;65.8
78461;SHT31;67755;51.986;5.696;2023-12-04T02:56:37;5.4;65.3
78461;SHT31;67755;51.986;5.696;2023-12-04T02:59:06;5.4;65.5
78461;SHT31;67755;51.986;5.696;2023-12-04T03:01:34;5.4;65.4
78461;SHT31;67755;51.986;5.696;2023-12-04T03:04:03;5.4;65.6
78461;SHT31;67755;51.986;5.696;2023-12-04T03:06:32;5.4;65.8
78461;SHT31;67755;51.986;5.696;2023-12-04T03:09:01;5.4;65.5
78461;SHT31;67755;51.986;5.696;2023-12-04T03:11:30;5.4;65.2
78461;SHT31;67755;51.986;5.696;2023-12-04T03:13:59;5.4;65.2
78461;SHT31;67755;51.986;5.696;2023-12-04T03:16:30;5.4;65.0
78461;SHT31;67755;51.986;5.696;2023-12-04T03:18:59;5.4;65.2
78461;SHT31;67755;51.986;5.696;2023-12-04T03:21:28;5.4;65.1
78461;SHT31;67755;51.986;5.696;2023-12-04T03:23:56;5.4;65.0
78461;SHT31;67755;51.986;5.696;2023-12-04T03:26:25;5.4;65.4
78461;SHT31;67755;51.986;5.696;2023-12-04T03:28:54;5.4;64.8
78461;SHT31;67755;51.986;5.696;2023-12-04T03:31:23;5.4;65.1
78461;SHT31;67755;51.986;5.696;2023-12-04T03:33:52;5.4;65.3
78461;SHT31;67755;51.986;5.696;2023-12-04T03:36:20;5.4;65.2
78461;SHT31;67755;51.986;5.696;2023-12-04T03:38:49;5.4;65.2
78461;SHT31;67755;51.986;5.696;2023-12-04T03:41:18;5.4;64.8
78461;SHT31;67755;51.986;5.696;2023-12-04T03:43:48;5.4;64.9
78461;SHT31;67755;51.986;5.696;2023-12-04T03:46:17;5.4;65.2
78461;SHT31;67755;51.986;5.696;2023-12-04T03:48:45;5.4;64.8
78461;SHT31;67755;51.986;5.696;2023-12-04T03:51:14;5.4;65.0
78461;SHT31;67755;51.986;5.696;2023-12-04T03:53:43;5.4;64.7
78461;SHT31;67755;51.986;5.696;2023-12-04T03:56:14;5.4;65.1
78461;SHT31;67755;51.986;5.696;2023-12-04T03:58:42;5.4;64.8
78461;SHT31;67755;51.986;5.696;2023-12-04T04:01:11;5.4;64.8
78461;SHT31;67755;51.986;5.696;2023-12-04T04:03:40;5.4;64.3
78461;SHT31;67755;51.986;5.696;2023-12-04T04:06:09;5.4;64.3
78461;SHT31;67755;51.986;5.696;2023-12-04T04:08:38;5.4;64.6
78461;SHT31;67755;51.986;5.696;2023-12-04T04:11:07;5.4;64.2
78461;SHT31;67755;51.986;5.696;2023-12-04T04:13:36;5.4;63.8
78461;SHT31;67755;51.986;5.696;2023-12-04T04:16:05;5.4;64.1
78461;SHT31;67755;51.986;5.696;2023-12-04T04:18:36;5.4;64.0
78461;SHT31;67755;51.986;5.696;2023-12-04T04:21:05;5.4;64.0
78461;SHT31;67755;51.986;5.696;2023-12-04T04:23:34;5.4;64.1
78461;SHT31;67755;51.986;5.696;2023-12-04T04:26:03;5.3;64.1
78461;SHT31;67755;51.986;5.696;2023-12-04T04:28:32;5.3;63.5
78461;SHT31;67755;51.986;5.696;2023-12-04T04:31:01;5.3;63.8
78461;SHT31;67755;51.986;5.696;2023-12-04T04:33:29;5.3;64.0
78461;SHT31;67755;51.986;5.696;2023-12-04T04:35:58;5.3;63.5
78461;SHT31;67755;51.986;5.696;2023-12-04T04:38:26;5.3;63.9
78461;SHT31;67755;51.986;5.696;2023-12-04T04:40:55;5.2;64.4
78461;SHT31;67755;51.986;5.696;2023-12-04T04:43:24;5.2;64.4
78461;SHT31;67755;51.986;5.696;2023-12-04T04:45:52;5.2;64.3
78461;SHT31;67755;51.986;5.696;2023-12-04T04:48:21;5.2;64.1
78461;SHT31;67755;51.986;5.696;2023-12-04T04:50:50;5.2;63.7
78461;SHT31;67755;51.986;5.696;2023-12-04T04:53:20;5.2;64.3
78461;SHT31;67755;51.986;5.696;2023-12-04T04:55:49;5.2;64.2
78461;SHT31;67755;51.986;5.696;2023-12-04T04:58:17;5.2;64.4
78461;SHT31;67755;51.986;5.696;2023-12-04T05:00:46;5.1;64.3
78461;SHT31;67755;51.986;5.696;2023-12-04T05:03:15;5.1;64.4
78461;SHT31;67755;51.986;5.696;2023-12-04T05:05:44;5.1;64.3
78461;SHT31;67755;51.986;5.696;2023-12-04T05:08:12;5.1;64.5
78461;SHT31;67755;51.986;5.696;2023-12-04T05:10:41;5.1;64.4
78461;SHT31;67755;51.986;5.696;2023-12-04T05:13:09;5.1;64.4
78461;SHT31;67755;51.986;5.696;2023-12-04T05:15:38;5.1;64.7
78461;SHT31;67755;51.986;5.696;2023-12-04T05:18:07;5.1;64.2
78461;SHT31;67755;51.986;5.696;2023-12-04T05:20:35;5.1;64.1
78461;SHT31;67755;51.986;5.696;2023-12-04T05:23:04;5.1;64.2
78461;SHT31;67755;51.986;5.696;2023-12-04T05:25:32;5.1;64.3
78461;SHT31;67755;51.986;5.696;2023-12-04T05:28:01;5.1;64.3
78461;SHT31;67755;51.986;5.696;2023-12-04T05:30:30;5.1;64.3
78461;SHT31;67755;51.986;5.696;2023-12-04T05:32:59;5.1;64.4
78461;SHT31;67755;51.986;5.696;2023-12-04T05:35:28;5.1;64.0
78461;SHT31;67755;51.986;5.696;2023-12-04T05:38:00;5.1;64.4
78461;SHT31;67755;51.986;5.696;2023-12-04T05:40:28;5.1;64.4
78461;SHT31;67755;51.986;5.696;2023-12-04T05:42:57;5.1;64.6
78461;SHT31;67755;51.986;5.696;2023-12-04T05:45:25;5.1;64.8
78461;SHT31;67755;51.986;5.696;2023-12-04T05:47:54;5.1;64.2
78461;SHT31;67755;51.986;5.696;2023-12-04T05:50:23;5.1;64.1
78461;SHT31;67755;51.986;5.696;2023-12-04T05:52:52;5.1;64.0
78461;SHT31;67755;51.986;5.696;2023-12-04T05:55:20;5.1;64.2
78461;SHT31;67755;51.986;5.696;2023-12-04T05:57:49;5.1;63.6
78461;SHT31;67755;51.986;5.696;2023-12-04T06:00:20;5.1;64.1
78461;SHT31;67755;51.986;5.696;2023-12-04T06:02:49;5.0;64.0
78461;SHT31;67755;51.986;5.696;2023-12-04T06:05:20;5.0;63.7
78461;SHT31;67755;51.986;5.696;2023-12-04T06:07:49;5.0;63.9
78461;SHT31;67755;51.986;5.696;2023-12-04T06:10:18;5.0;64.0
78461;SHT31;67755;51.986;5.696;2023-12-04T06:12:47;5.0;64.1
78461;SHT31;67755;51.986;5.696;2023-12-04T06:15:15;5.1;63.7
78461;SHT31;67755;51.986;5.696;2023-12-04T06:17:44;5.1;63.6
78461;SHT31;67755;51.986;5.696;2023-12-04T06:20:13;5.1;64.0
78461;SHT31;67755;51.986;5.696;2023-12-04T06:22:42;5.0;63.9
78461;SHT31;67755;51.986;5.696;2023-12-04T06:25:12;5.0;64.0
78461;SHT31;67755;51.986;5.696;2023-12-04T06:27:43;5.0;63.3
78461;SHT31;67755;51.986;5.696;2023-12-04T06:30:13;5.0;63.3
78461;SHT31;67755;51.986;5.696;2023-12-04T06:32:42;5.0;62.8
78461;SHT31;67755;51.986;5.696;2023-12-04T06:35:12;5.0;63.8
78461;SHT31;67755;51.986;5.696;2023-12-04T06:37:43;5.0;62.9
78461;SHT31;67755;51.986;5.696;2023-12-04T06:40:14;5.0;63.5
78461;SHT31;67755;51.986;5.696;2023-12-04T06:42:44;5.0;63.1
78461;SHT31;67755;51.986;5.696;2023-12-04T06:45:13;5.0;63.4
78461;SHT31;67755;51.986;5.696;2023-12-04T06:47:43;5.0;63.9
78461;SHT31;67755;51.986;5.696;2023-12-04T06:50:16;5.0;63.6
78461;SHT31;67755;51.986;5.696;2023-12-04T06:52:44;5.0;63.9
78461;SHT31;67755;51.986;5.696;2023-12-04T06:55:13;5.0;63.7
78461;SHT31;67755;51.986;5.696;2023-12-04T06:57:42;5.0;64.2
78461;SHT31;67755;51.986;5.696;2023-12-04T07:00:11;5.1;63.2
78461;SHT31;67755;51.986;5.696;2023-12-04T07:02:41;5.1;63.1
78461;SHT31;67755;51.986;5.696;2023-12-04T07:05:12;5.1;62.3
78461;SHT31;67755;51.986;5.696;2023-12-04T07:07:41;5.1;62.2
78461;SHT31;67755;51.986;5.696;2023-12-04T07:10:09;5.1;63.0
78461;SHT31;67755;51.986;5.696;2023-12-04T07:12:41;5.1;63.2
78461;SHT31;67755;51.986;5.696;2023-12-04T07:15:11;5.1;62.0
78461;SHT31;67755;51.986;5.696;2023-12-04T07:17:40;5.1;62.5
78461;SHT31;67755;51.986;5.696;2023-12-04T07:20:09;5.1;62.5
78461;SHT31;67755;51.986;5.696;2023-12-04T07:22:39;5.0;62.2
78461;SHT31;67755;51.986;5.696;2023-12-04T07:25:08;5.0;62.5
78461;SHT31;67755;51.986;5.696;2023-12-04T07:27:37;5.0;62.7
78461;SHT31;67755;51.986;5.696;2023-12-04T07:30:06;5.0;62.2
78461;SHT31;67755;51.986;5.696;2023-12-04T07:32:35;5.0;62.4
78461;SHT31;67755;51.986;5.696;2023-12-04T07:35:05;5.0;62.5
78461;SHT31;67755;51.986;5.696;2023-12-04T07:37:34;5.0;62.5
78461;SHT31;67755;51.986;5.696;2023-12-04T07:40:02;5.0;61.4
78461;SHT31;67755;51.986;5.696;2023-12-04T07:42:32;5.0;62.0
78461;SHT31;67755;51.986;5.696;2023-12-04T07:45:01;5.0;61.7
78461;SHT31;67755;51.986;5.696;2023-12-04T07:47:29;5.0;62.4
78461;SHT31;67755;51.986;5.696;2023-12-04T07:49:58;5.0;62.1
78461;SHT31;67755;51.986;5.696;2023-12-04T07:52:26;5.0;62.0
78461;SHT31;67755;51.986;5.696;2023-12-04T07:54:55;5.0;61.6
78461;SHT31;67755;51.986;5.696;2023-12-04T07:57:26;5.0;61.6
78461;SHT31;67755;51.986;5.696;2023-12-04T07:59:54;5.0;61.3
78461;SHT31;67755;51.986;5.696;2023-12-04T08:02:23;5.0;61.5
78461;SHT31;67755;51.986;5.696;2023-12-04T08:04:52;5.0;60.7
78461;SHT31;67755;51.986;5.696;2023-12-04T08:07:20;5.0;61.8
78461;SHT31;67755;51.986;5.696;2023-12-04T08:09:49;5.0;61.6
78461;SHT31;67755;51.986;5.696;2023-12-04T08:12:19;5.0;61.9
78461;SHT31;67755;51.986;5.696;2023-12-04T08:14:47;5.0;62.1
78461;SHT31;67755;51.986;5.696;2023-12-04T08:17:16;5.0;62.1
78461;SHT31;67755;51.986;5.696;2023-12-04T08:19:46;5.0;62.1
78461;SHT31;67755;51.986;5.696;2023-12-04T08:22:14;5.0;62.1
78461;SHT31;67755;51.986;5.696;2023-12-04T08:24:43;5.1;61.0
78461;SHT31;67755;51.986;5.696;2023-12-04T08:27:11;5.1;62.0
78461;SHT31;67755;51.986;5.696;2023-12-04T08:29:41;5.1;62.0
78461;SHT31;67755;51.986;5.696;2023-12-04T08:32:09;5.1;61.1
78461;SHT31;67755;51.986;5.696;2023-12-04T08:34:38;5.1;61.6
78461;SHT31;67755;51.986;5.696;2023-12-04T08:37:07;5.1;62.3
78461;SHT31;67755;51.986;5.696;2023-12-04T08:39:35;5.1;62.4
78461;SHT31;67755;51.986;5.696;2023-12-04T08:42:05;5.2;63.0
78461;SHT31;67755;51.986;5.696;2023-12-04T08:44:34;5.2;62.8
78461;SHT31;67755;51.986;5.696;2023-12-04T08:47:04;5.2;61.5
78461;SHT31;67755;51.986;5.696;2023-12-04T08:49:33;5.2;61.7
78461;SHT31;67755;51.986;5.696;2023-12-04T08:52:02;5.2;62.5
78461;SHT31;67755;51.986;5.696;2023-12-04T08:54:33;5.3;62.3
78461;SHT31;67755;51.986;5.696;2023-12-04T08:57:02;5.3;61.8
78461;SHT31;67755;51.986;5.696;2023-12-04T08:59:31;5.3;61.8
78461;SHT31;67755;51.986;5.696;2023-12-04T09:02:00;5.3;61.0
78461;SHT31;67755;51.986;5.696;2023-12-04T09:04:30;5.4;61.8
78461;SHT31;67755;51.986;5.696;2023-12-04T09:06:59;5.4;61.7
78461;SHT31;67755;51.986;5.696;2023-12-04T09:09:27;5.4;61.8
78461;SHT31;67755;51.986;5.696;2023-12-04T09:11:56;5.4;61.8
78461;SHT31;67755;51.986;5.696;2023-12-04T09:14:25;5.4;61.4
78461;SHT31;67755;51.986;5.696;2023-12-04T09:16:54;5.4;62.2
78461;SHT31;67755;51.986;5.696;2023-12-04T09:19:23;5.5;62.4
78461;SHT31;67755;51.986;5.696;2023-12-04T09:21:52;5.5;62.1
78461;SHT31;67755;51.986;5.696;2023-12-04T09:24:21;5.5;60.6
78461;SHT31;67755;51.986;5.696;2023-12-04T09:26:50;5.5;61.3
78461;SHT31;67755;51.986;5.696;2023-12-04T09:29:18;5.5;62.2
78461;SHT31;67755;51.986;5.696;2023-12-04T09:31:50;5.5;62.3
78461;SHT31;67755;51.986;5.696;2023-12-04T09:34:21;5.6;62.2
78461;SHT31;67755;51.986;5.696;2023-12-04T09:36:50;5.6;62.3
78461;SHT31;67755;51.986;5.696;2023-12-04T09:39:18;5.6;61.9
78461;SHT31;67755;51.986;5.696;2023-12-04T09:41:47;5.6;62.3
78461;SHT31;67755;51.986;5.696;2023-12-04T09:44:17;5.6;61.8
78461;SHT31;67755;51.986;5.696;2023-12-04T09:46:46;5.6;61.8
78461;SHT31;67755;51.986;5.696;2023-12-04T09:49:16;5.7;61.3
78461;SHT31;67755;51.986;5.696;2023-12-04T09:51:46;5.7;61.3
78461;SHT31;67755;51.986;5.696;2023-12-04T09:54:17;5.7;60.4
78461;SHT31;67755;51.986;5.696;2023-12-04T09:56:46;5.7;60.8
78461;SHT31;67755;51.986;5.696;2023-12-04T09:59:17;5.7;61.4
78461;SHT31;67755;51.986;5.696;2023-12-04T10:01:46;5.7;61.1
78461;SHT31;67755;51.986;5.696;2023-12-04T10:04:15;5.7;60.2
78461;SHT31;67755;51.986;5.696;2023-12-04T10:06:45;5.8;60.2
78461;SHT31;67755;51.986;5.696;2023-12-04T10:09:14;5.8;60.1
78461;SHT31;67755;51.986;5.696;2023-12-04T10:11:45;5.8;60.8
78461;SHT31;67755;51.986;5.696;2023-12-04T10:14:19;5.8;60.9
78461;SHT31;67755;51.986;5.696;2023-12-04T10:16:48;5.8;60.9
78461;SHT31;67755;51.986;5.696;2023-12-04T10:19:21;5.8;60.9
78461;SHT31;67755;51.986;5.696;2023-12-04T10:21:54;5.8;60.9
78461;SHT31;67755;51.986;5.696;2023-12-04T10:24:32;5.8;60.8
78461;SHT31;67755;51.986;5.696;2023-12-04T10:27:02;5.8;60.1
78461;SHT31;67755;51.986;5.696;2023-12-04T10:29:43;5.8;58.7
78461;SHT31;67755;51.986;5.696;2023-12-04T10:32:13;5.9;59.3
78461;SHT31;67755;51.986;5.696;2023-12-04T10:34:43;5.9;59.0
78461;SHT31;67755;51.986;5.696;2023-12-04T10:37:12;5.9;60.8
78461;SHT31;67755;51.986;5.696;2023-12-04T10:39:49;5.9;61.0
78461;SHT31;67755;51.986;5.696;2023-12-04T10:42:26;5.9;59.9
78461;SHT31;67755;51.986;5.696;2023-12-04T10:44:57;5.9;60.9
78461;SHT31;67755;51.986;5.696;2023-12-04T10:47:27;5.9;59.6
78461;SHT31;67755;51.986;5.696;2023-12-04T10:49:57;5.9;60.0
78461;SHT31;67755;51.986;5.696;2023-12-04T10:52:26;5.9;59.5
78461;SHT31;67755;51.986;5.696;2023-12-04T10:54:56;5.9;60.7
78461;SHT31;67755;51.986;5.696;2023-12-04T10:57:30;5.9;59.3
78461;SHT31;67755;51.986;5.696;2023-12-04T11:00:02;5.9;59.5
78461;SHT31;67755;51.986;5.696;2023-12-04T11:02:34;5.9;59.4
78461;SHT31;67755;51.986;5.696;2023-12-04T11:05:08;5.9;59.5
78461;SHT31;67755;51.986;5.696;2023-12-04T11:07:41;5.9;59.0
78461;SHT31;67755;51.986;5.696;2023-12-04T11:10:11;5.9;59.5
78461;SHT31;67755;51.986;5.696;2023-12-04T11:12:44;5.9;59.2
78461;SHT31;67755;51.986;5.696;2023-12-04T11:15:16;5.9;58.8
78461;SHT31;67755;51.986;5.696;2023-12-04T11:17:51;6.0;59.7
78461;SHT31;67755;51.986;5.696;2023-12-04T11:20:24;6.0;60.2
78461;SHT31;67755;51.986;5.696;2023-12-04T11:22:56;6.0;60.2
78461;SHT31;67755;51.986;5.696;2023-12-04T11:25:26;6.0;58.7
78461;SHT31;67755;51.986;5.696;2023-12-04T11:27:56;6.0;58.2
78461;SHT31;67755;51.986;5.696;2023-12-04T11:30:25;6.0;58.5
78461;SHT31;67755;51.986;5.696;2023-12-04T11:32:55;6.0;60.3
78461;SHT31;67755;51.986;5.696;2023-12-04T11:35:28;6.0;58.7
78461;SHT31;67755;51.986;5.696;2023-12-04T11:37:57;6.0;58.7
78461;SHT31;67755;51.986;5.696;2023-12-04T11:40:27;6.0;59.2
78461;SHT31;67755;51.986;5.696;2023-12-04T11:42:56;6.0;59.6
78461;SHT31;67755;51.986;5.696;2023-12-04T11:45:25;6.0;60.2
78461;SHT31;67755;51.986;5.696;2023-12-04T11:47:55;6.0;58.1
78461;SHT31;67755;51.986;5.696;2023-12-04T11:50:28;6.0;58.0
78461;SHT31;67755;51.986;5.696;2023-12-04T11:52:57;6.1;59.2
78461;SHT31;67755;51.986;5.696;2023-12-04T11:55:26;6.0;59.3
78461;SHT31;67755;51.986;5.696;2023-12-04T11:57:55;6.0;59.2
78461;SHT31;67755;51.986;5.696;2023-12-04T12:00:24;6.0;59.4
78461;SHT31;67755;51.986;5.696;2023-12-04T12:03:05;6.0;58.2
78461;SHT31;67755;51.986;5.696;2023-12-04T12:05:36;6.0;58.5
78461;SHT31;67755;51.986;5.696;2023-12-04T12:08:08;6.0;59.5
78461;SHT31;67755;51.986;5.696;2023-12-04T12:10:37;6.0;58.5
78461;SHT31;67755;51.986;5.696;2023-12-04T12:13:06;6.0;60.1
78461;SHT31;67755;51.986;5.696;2023-12-04T12:15:35;6.0;58.5
78461;SHT31;67755;51.986;5.696;2023-12-04T12:18:05;6.0;60.2
78461;SHT31;67755;51.986;5.696;2023-12-04T12:20:36;6.0;61.4
78461;SHT31;67755;51.986;5.696;2023-12-04T12:23:06;6.0;60.4
78461;SHT31;67755;51.986;5.696;2023-12-04T12:25:35;6.0;58.9
78461;SHT31;67755;51.986;5.696;2023-12-04T12:28:05;6.0;59.2
78461;SHT31;67755;51.986;5.696;2023-12-04T12:30:34;6.1;60.3
78461;SHT31;67755;51.986;5.696;2023-12-04T12:33:02;6.1;59.7
78461;SHT31;67755;51.986;5.696;2023-12-04T12:35:31;6.1;58.9
78461;SHT31;67755;51.986;5.696;2023-12-04T12:38:03;6.1;58.4
78461;SHT31;67755;51.986;5.696;2023-12-04T12:40:32;6.1;58.3
78461;SHT31;67755;51.986;5.696;2023-12-04T12:43:08;6.1;58.5
78461;SHT31;67755;51.986;5.696;2023-12-04T12:45:41;6.1;60.0
78461;SHT31;67755;51.986;5.696;2023-12-04T12:48:12;6.1;59.3
78461;SHT31;67755;51.986;5.696;2023-12-04T12:50:41;6.1;59.9
78461;SHT31;67755;51.986;5.696;2023-12-04T12:53:11;6.1;59.9
78461;SHT31;67755;51.986;5.696;2023-12-04T12:55:40;6.1;59.0
78461;SHT31;67755;51.986;5.696;2023-12-04T12:58:10;6.1;58.8
78461;SHT31;67755;51.986;5.696;2023-12-04T13:00:40;6.1;59.5
78461;SHT31;67755;51.986;5.696;2023-12-04T13:03:15;6.1;59.5
78461;SHT31;67755;51.986;5.696;2023-12-04T13:05:45;6.1;58.5
78461;SHT31;67755;51.986;5.696;2023-12-04T13:08:14;6.1;59.1
78461;SHT31;67755;51.986;5.696;2023-12-04T13:10:43;6.2;59.2
78461;SHT31;67755;51.986;5.696;2023-12-04T13:13:13;6.2;59.3
78461;SHT31;67755;51.986;5.696;2023-12-04T13:15:42;6.2;59.0
78461;SHT31;67755;51.986;5.696;2023-12-04T13:18:11;6.2;59.5
78461;SHT31;67755;51.986;5.696;2023-12-04T13:20:39;6.2;59.5
78461;SHT31;67755;51.986;5.696;2023-12-04T13:23:09;6.2;60.6
78461;SHT31;67755;51.986;5.696;2023-12-04T13:25:40;6.2;60.2
78461;SHT31;67755;51.986;5.696;2023-12-04T13:28:10;6.2;59.8
78461;SHT31;67755;51.986;5.696;2023-12-04T13:30:40;6.2;59.8
78461;SHT31;67755;51.986;5.696;2023-12-04T13:33:09;6.2;59.1
78461;SHT31;67755;51.986;5.696;2023-12-04T13:35:37;6.2;58.9
78461;SHT31;67755;51.986;5.696;2023-12-04T13:38:06;6.2;59.3
78461;SHT31;67755;51.986;5.696;2023-12-04T13:40:39;6.2;59.1
78461;SHT31;67755;51.986;5.696;2023-12-04T13:43:13;6.2;59.4
78461;SHT31;67755;51.986;5.696;2023-12-04T13:46:00;6.3;59.3
78461;SHT31;67755;51.986;5.696;2023-12-04T13:48:33;6.3;59.4
78461;SHT31;67755;51.986;5.696;2023-12-04T13:51:08;6.3;59.0
78461;SHT31;67755;51.986;5.696;2023-12-04T13:53:38;6.3;59.0
78461;SHT31;67755;51.986;5.696;2023-12-04T13:56:11;6.3;58.4
78461;SHT31;67755;51.986;5.696;2023-12-04T13:58:45;6.3;58.9
78461;SHT31;67755;51.986;5.696;2023-12-04T14:01:18;6.2;58.9
78461;SHT31;67755;51.986;5.696;2023-12-04T14:03:52;6.2;58.5
78461;SHT31;67755;51.986;5.696;2023-12-04T14:06:22;6.2;60.2
78461;SHT31;67755;51.986;5.696;2023-12-04T14:08:51;6.2;59.5
78461;SHT31;67755;51.986;5.696;2023-12-04T14:11:20;6.2;59.8
78461;SHT31;67755;51.986;5.696;2023-12-04T14:13:48;6.2;60.1
78461;SHT31;67755;51.986;5.696;2023-12-04T14:16:18;6.2;60.0
78461;SHT31;67755;51.986;5.696;2023-12-04T14:18:46;6.2;60.6
78461;SHT31;67755;51.986;5.696;2023-12-04T14:21:17;6.2;60.9
78461;SHT31;67755;51.986;5.696;2023-12-04T14:23:46;6.2;61.0
78461;SHT31;67755;51.986;5.696;2023-12-04T14:26:15;6.2;61.4
78461;SHT31;67755;51.986;5.696;2023-12-04T14:28:44;6.1;62.1
78461;SHT31;67755;51.986;5.696;2023-12-04T14:31:13;6.1;62.9
78461;SHT31;67755;51.986;5.696;2023-12-04T14:33:41;6.1;62.3
78461;SHT31;67755;51.986;5.696;2023-12-04T14:36:11;6.1;62.0
78461;SHT31;67755;51.986;5.696;2023-12-04T14:38:40;6.1;61.8
78461;SHT31;67755;51.986;5.696;2023-12-04T14:41:09;6.1;62.3
78461;SHT31;67755;51.986;5.696;2023-12-04T14:43:38;6.1;62.0
78461;SHT31;67755;51.986;5.696;2023-12-04T14:46:07;6.1;61.8
78461;SHT31;67755;51.986;5.696;2023-12-04T14:48:38;6.1;62.6
78461;SHT31;67755;51.986;5.696;2023-12-04T14:51:09;6.1;62.3
78461;SHT31;67755;51.986;5.696;2023-12-04T14:53:39;6.1;63.2
78461;SHT31;67755;51.986;5.696;2023-12-04T14:56:17;6.0;63.8
78461;SHT31;67755;51.986;5.696;2023-12-04T14:58:53;6.0;63.7
78461;SHT31;67755;51.986;5.696;2023-12-04T15:01:40;6.0;63.4
78461;SHT31;67755;51.986;5.696;2023-12-04T15:04:25;6.0;63.7
78461;SHT31;67755;51.986;5.696;2023-12-04T15:09:07;6.1;63.5
78461;SHT31;67755;51.986;5.696;2023-12-04T15:11:52;6.0;64.0
78461;SHT31;67755;51.986;5.696;2023-12-04T15:14:42;6.0;63.9
78461;SHT31;67755;51.986;5.696;2023-12-04T15:17:16;6.0;64.6
78461;SHT31;67755;51.986;5.696;2023-12-04T15:19:51;6.0;64.4
78461;SHT31;67755;51.986;5.696;2023-12-04T15:22:31;6.0;64.2
78461;SHT31;67755;51.986;5.696;2023-12-04T15:25:00;6.0;64.1
78461;SHT31;67755;51.986;5.696;2023-12-04T15:27:29;6.0;64.4
78461;SHT31;67755;51.986;5.696;2023-12-04T15:29:57;6.0;64.8
78461;SHT31;67755;51.986;5.696;2023-12-04T15:32:26;6.0;64.9
78461;SHT31;67755;51.986;5.696;2023-12-04T15:34:55;6.0;64.8
78461;SHT31;67755;51.986;5.696;2023-12-04T15:37:26;6.0;65.3
78461;SHT31;67755;51.986;5.696;2023-12-04T15:39:54;6.0;65.1
78461;SHT31;67755;51.986;5.696;2023-12-04T15:42:23;6.0;65.3
78461;SHT31;67755;51.986;5.696;2023-12-04T15:44:52;6.0;65.4
78461;SHT31;67755;51.986;5.696;2023-12-04T15:47:20;6.0;65.6
78461;SHT31;67755;51.986;5.696;2023-12-04T15:49:51;6.0;65.8
78461;SHT31;67755;51.986;5.696;2023-12-04T15:52:19;6.0;65.9
78461;SHT31;67755;51.986;5.696;2023-12-04T15:54:52;6.0;65.8
78461;SHT31;67755;51.986;5.696;2023-12-04T15:57:22;6.0;65.9
78461;SHT31;67755;51.986;5.696;2023-12-04T15:59:51;6.0;66.1
78461;SHT31;67755;51.986;5.696;2023-12-04T16:02:21;6.0;66.1
78461;SHT31;67755;51.986;5.696;2023-12-04T16:04:52;6.0;66.2
78461;SHT31;67755;51.986;5.696;2023-12-04T16:07:21;6.0;66.3
78461;SHT31;67755;51.986;5.696;2023-12-04T16:09:50;6.0;66.3
78461;SHT31;67755;51.986;5.696;2023-12-04T16:12:18;6.0;66.3
78461;SHT31;67755;51.986;5.696;2023-12-04T16:14:47;6.0;66.4
78461;SHT31;67755;51.986;5.696;2023-12-04T16:17:15;6.0;66.2
78461;SHT31;67755;51.986;5.696;2023-12-04T16:19:44;6.0;66.3
78461;SHT31;67755;51.986;5.696;2023-12-04T16:22:13;6.0;66.5
78461;SHT31;67755;51.986;5.696;2023-12-04T16:24:41;6.0;66.7
78461;SHT31;67755;51.986;5.696;2023-12-04T16:27:10;6.0;66.8
78461;SHT31;67755;51.986;5.696;2023-12-04T16:29:39;5.9;67.0
78461;SHT31;67755;51.986;5.696;2023-12-04T16:32:07;5.9;67.1
78461;SHT31;67755;51.986;5.696;2023-12-04T16:34:38;5.9;67.1
78461;SHT31;67755;51.986;5.696;2023-12-04T16:37:07;5.9;67.1